Time,TemperatureF,DewpointF,PressureIn,WindDirection,WindDirectionDegrees,WindSpeedMPH,WindSpeedGustMPH,Humidity,HourlyPrecipIn,Conditions,Clouds,dailyrainin,SoftwareType,DateUTC
2013-03-03 00:00:00,32.7,24.7,30.05,WNW,290,2.0,5.0,72,0.00,,OVC049,0.00,VWS V14.01,2013-03-03 05:00:00,
2013-03-03 00:05:00,32.5,24.8,30.05,NNW,345,2.0,5.0,73,0.00,,OVC049,0.00,VWS V14.01,2013-03-03 05:05:00,
2013-03-03 00:10:00,32.4,24.7,30.05,NNW,338,1.0,7.0,73,0.00,,OVC049,0.00,VWS V14.01,2013-03-03 05:10:00,
2013-03-03 00:15:00,32.3,25.0,30.05,WSW,239,0.0,3.0,74,0.00,,OVC049,0.00,VWS V14.01,2013-03-03 05:15:00,
2013-03-03 00:22:00,32.2,24.9,30.05,NNW,342,3.0,7.0,74,0.00,,OVC049,0.00,VWS V14.01,2013-03-03 05:22:00,
2013-03-03 00:27:00,32.0,24.7,30.05,NNE,14,1.0,2.0,74,0.00,,OVC049,0.00,VWS V14.01,2013-03-03 05:27:00,
2013-03-03 00:32:00,31.8,24.5,30.05,West,277,0.0,0.0,74,0.00,,OVC049,0.00,VWS V14.01,2013-03-03 05:32:00,
2013-03-03 00:37:00,31.8,24.8,30.05,North,6,4.0,4.0,75,0.00,,OVC049,0.00,VWS V14.01,2013-03-03 05:37:00,
2013-03-03 00:42:00,31.9,24.9,30.05,NNW,335,1.0,2.0,75,0.00,,OVC049,0.00,VWS V14.01,2013-03-03 05:42:00,
2013-03-03 00:47:00,32.0,24.7,30.05,SW,219,1.0,3.0,74,0.00,,OVC049,0.00,VWS V14.01,2013-03-03 05:47:00,
2013-03-03 00:52:00,31.9,24.6,30.05,North,357,0.0,1.0,74,0.00,,OVC049,0.00,VWS V14.01,2013-03-03 05:52:00,
2013-03-03 00:57:00,31.7,24.4,30.05,North,9,4.0,7.0,74,0.00,,OVC049,0.00,VWS V14.01,2013-03-03 05:57:00,
2013-03-03 01:02:00,31.6,24.6,30.05,NW,323,0.0,1.0,75,0.00,,OVC049,0.00,VWS V14.01,2013-03-03 06:02:00,
2013-03-03 01:07:00,31.4,24.1,30.05,NNW,333,3.0,3.0,74,0.00,,OVC049,0.00,VWS V14.01,2013-03-03 06:07:00,
2013-03-03 01:12:00,31.3,24.0,30.05,North,349,1.0,2.0,74,0.00,,OVC049,0.00,VWS V14.01,2013-03-03 06:12:00,
2013-03-03 01:17:00,31.2,24.2,30.05,NW,323,2.0,3.0,75,0.00,,OVC049,0.00,VWS V14.01,2013-03-03 06:17:00,
2013-03-03 01:22:00,31.2,24.2,30.05,South,184,1.0,1.0,75,0.00,,OVC049,0.00,VWS V14.01,2013-03-03 06:22:00,
2013-03-03 01:27:00,31.3,24.3,30.06,WNW,288,2.0,4.0,75,0.00,,OVC049,0.00,VWS V14.01,2013-03-03 06:27:00,
2013-03-03 01:32:00,31.4,24.4,30.06,NNW,347,1.0,1.0,75,0.00,,OVC049,0.00,VWS V14.01,2013-03-03 06:32:00,
2013-03-03 01:37:00,31.5,24.2,30.06,West,277,0.0,1.0,74,0.00,,OVC049,0.00,VWS V14.01,2013-03-03 06:37:00,
2013-03-03 01:42:00,31.6,24.3,30.06,NW,316,1.0,1.0,74,0.00,,OVC049,0.00,VWS V14.01,2013-03-03 06:42:00,
2013-03-03 01:47:00,31.7,24.4,30.06,West,262,1.0,1.0,74,0.00,,OVC049,0.00,VWS V14.01,2013-03-03 06:47:00,
2013-03-03 01:52:00,31.7,24.4,30.06,NW,315,1.0,1.0,74,0.00,,OVC049,0.00,VWS V14.01,2013-03-03 06:52:00,
2013-03-03 01:57:00,31.8,24.1,30.05,WNW,295,0.0,1.0,73,0.00,,OVC049,0.00,VWS V14.01,2013-03-03 06:57:00,
2013-03-03 02:02:00,31.8,24.1,30.05,North,6,0.0,0.0,73,0.00,,OVC049,0.00,VWS V14.01,2013-03-03 07:02:00,
2013-03-03 02:07:00,31.8,24.1,30.05,North,11,3.0,3.0,73,0.00,,OVC049,0.00,VWS V14.01,2013-03-03 07:07:00,
2013-03-03 02:12:00,31.8,24.1,30.05,WSW,252,0.0,1.0,73,0.00,,OVC049,0.00,VWS V14.01,2013-03-03 07:12:00,
2013-03-03 02:17:00,31.8,24.5,30.05,North,356,5.0,6.0,74,0.00,,OVC049,0.00,VWS V14.01,2013-03-03 07:17:00,
2013-03-03 02:22:00,31.7,24.0,30.05,NW,314,1.0,3.0,73,0.00,,OVC049,0.00,VWS V14.01,2013-03-03 07:22:00,
2013-03-03 02:27:00,31.6,24.3,30.05,North,11,3.0,3.0,74,0.00,,OVC049,0.00,VWS V14.01,2013-03-03 07:27:00,
2013-03-03 02:32:00,31.5,24.2,30.04,NE,53,2.0,3.0,74,0.00,,OVC049,0.00,VWS V14.01,2013-03-03 07:32:00,
2013-03-03 02:37:00,31.3,24.3,30.04,NNE,15,2.0,2.0,75,0.00,,OVC049,0.00,VWS V14.01,2013-03-03 07:37:00,
2013-03-03 02:42:00,31.1,24.1,30.04,NNE,27,2.0,4.0,75,0.00,,OVC049,0.00,VWS V14.01,2013-03-03 07:42:00,
2013-03-03 02:47:00,30.9,23.9,30.04,NNW,346,2.0,2.0,75,0.00,,OVC049,0.00,VWS V14.01,2013-03-03 07:47:00,
2013-03-03 02:52:00,30.7,23.7,30.04,NNW,344,4.0,6.0,75,0.00,,OVC049,0.00,VWS V14.01,2013-03-03 07:52:00,
2013-03-03 02:57:00,30.6,23.6,30.04,North,360,2.0,6.0,75,0.00,,OVC049,0.00,VWS V14.01,2013-03-03 07:57:00,
2013-03-03 03:02:00,30.6,23.6,30.04,North,359,0.0,1.0,75,0.00,,OVC049,0.00,VWS V14.01,2013-03-03 08:02:00,
2013-03-03 03:07:00,30.4,23.4,30.04,NW,310,1.0,4.0,75,0.00,,OVC049,0.00,VWS V14.01,2013-03-03 08:07:00,
2013-03-03 03:12:00,30.3,23.3,30.04,North,356,3.0,3.0,75,0.00,,OVC049,0.00,VWS V14.01,2013-03-03 08:12:00,
2013-03-03 03:17:00,30.3,23.3,30.04,NW,322,0.0,1.0,75,0.00,,OVC049,0.00,VWS V14.01,2013-03-03 08:17:00,
2013-03-03 03:22:00,30.3,23.3,30.03,NNW,340,0.0,1.0,75,0.00,,OVC049,0.00,VWS V14.01,2013-03-03 08:22:00,
2013-03-03 03:27:00,30.3,23.0,30.04,WSW,252,0.0,0.0,74,0.00,,OVC049,0.00,VWS V14.01,2013-03-03 08:27:00,
2013-03-03 03:32:00,30.3,23.0,30.04,NNW,329,1.0,4.0,74,0.00,,OVC049,0.00,VWS V14.01,2013-03-03 08:32:00,
2013-03-03 03:37:00,30.4,23.4,30.04,West,260,1.0,2.0,75,0.00,,OVC049,0.00,VWS V14.01,2013-03-03 08:37:00,
2013-03-03 03:42:00,30.4,23.4,30.04,NW,314,0.0,2.0,75,0.00,,OVC049,0.00,VWS V14.01,2013-03-03 08:42:00,
2013-03-03 03:47:00,30.4,23.1,30.04,SW,226,0.0,2.0,74,0.00,,OVC049,0.00,VWS V14.01,2013-03-03 08:47:00,
2013-03-03 03:52:00,30.5,23.5,30.04,WNW,303,0.0,1.0,75,0.00,,OVC049,0.00,VWS V14.01,2013-03-03 08:52:00,
2013-03-03 03:57:00,30.5,23.2,30.04,East,85,0.0,2.0,74,0.00,,OVC049,0.00,VWS V14.01,2013-03-03 08:57:00,
2013-03-03 04:02:00,30.5,23.2,30.04,SW,219,1.0,4.0,74,0.00,,OVC049,0.00,VWS V14.01,2013-03-03 09:02:00,
2013-03-03 04:07:00,30.5,23.2,30.04,NW,326,0.0,2.0,74,0.00,,OVC049,0.00,VWS V14.01,2013-03-03 09:07:00,
2013-03-03 04:12:00,30.5,22.9,30.04,WSW,258,0.0,1.0,73,0.00,,OVC049,0.00,VWS V14.01,2013-03-03 09:12:00,
2013-03-03 04:17:00,30.5,22.6,30.04,NE,56,0.0,2.0,72,0.00,,OVC049,0.00,VWS V14.01,2013-03-03 09:17:00,
2013-03-03 04:22:00,30.5,22.2,30.04,North,360,2.0,2.0,71,0.00,,OVC049,0.00,VWS V14.01,2013-03-03 09:22:00,
2013-03-03 04:27:00,30.5,22.6,30.04,North,7,3.0,3.0,72,0.00,,OVC049,0.00,VWS V14.01,2013-03-03 09:27:00,
2013-03-03 04:32:00,30.4,22.1,30.04,NNW,329,1.0,2.0,71,0.00,,OVC049,0.00,VWS V14.01,2013-03-03 09:32:00,
2013-03-03 04:37:00,30.4,22.1,30.04,WSW,245,0.0,2.0,71,0.00,,OVC049,0.00,VWS V14.01,2013-03-03 09:37:00,
2013-03-03 04:42:00,30.4,22.5,30.04,North,359,3.0,3.0,72,0.00,,OVC049,0.00,VWS V14.01,2013-03-03 09:42:00,
2013-03-03 04:47:00,30.4,22.1,30.04,NNE,16,2.0,2.0,71,0.00,,OVC049,0.00,VWS V14.01,2013-03-03 09:47:00,
2013-03-03 04:52:00,30.3,22.0,30.04,West,276,1.0,1.0,71,0.00,,OVC049,0.00,VWS V14.01,2013-03-03 09:52:00,
2013-03-03 04:57:00,30.3,22.4,30.04,NW,323,5.0,8.0,72,0.00,,OVC049,0.00,VWS V14.01,2013-03-03 09:57:00,
2013-03-03 05:02:00,30.2,22.3,30.03,West,280,0.0,1.0,72,0.00,,OVC049,0.00,VWS V14.01,2013-03-03 10:02:00,
2013-03-03 05:07:00,30.2,22.3,30.04,West,268,3.0,3.0,72,0.00,,OVC049,0.00,VWS V14.01,2013-03-03 10:07:00,
2013-03-03 05:12:00,30.1,22.5,30.04,NNW,336,2.0,4.0,73,0.00,,OVC049,0.00,VWS V14.01,2013-03-03 10:12:00,
2013-03-03 05:17:00,30.0,22.4,30.04,NNW,328,1.0,3.0,73,0.00,,OVC049,0.00,VWS V14.01,2013-03-03 10:17:00,
2013-03-03 05:22:00,30.0,22.7,30.04,NNW,338,3.0,3.0,74,0.00,,OVC049,0.00,VWS V14.01,2013-03-03 10:22:00,
2013-03-03 05:27:00,30.0,22.7,30.04,NW,322,3.0,5.0,74,0.00,,OVC049,0.00,VWS V14.01,2013-03-03 10:27:00,
2013-03-03 05:32:00,29.9,22.6,30.04,WNW,283,0.0,1.0,74,0.00,,OVC049,0.00,VWS V14.01,2013-03-03 10:32:00,
2013-03-03 05:37:00,30.0,23.0,30.04,North,1,1.0,3.0,75,0.00,,OVC049,0.00,VWS V14.01,2013-03-03 10:37:00,
2013-03-03 05:42:00,29.9,23.0,30.04,West,265,1.0,3.0,75,0.00,,OVC049,0.00,VWS V14.01,2013-03-03 10:42:00,
2013-03-03 05:47:00,29.9,23.0,30.04,NW,305,1.0,3.0,75,0.00,,OVC049,0.00,VWS V14.01,2013-03-03 10:47:00,
2013-03-03 05:52:00,29.9,23.0,30.04,West,264,0.0,0.0,75,0.00,,OVC049,0.00,VWS V14.01,2013-03-03 10:52:00,
2013-03-03 05:57:00,29.9,22.6,30.04,NNW,330,0.0,4.0,74,0.00,,OVC049,0.00,VWS V14.01,2013-03-03 10:57:00,
2013-03-03 06:02:00,29.9,22.6,30.04,West,281,1.0,4.0,74,0.00,,OVC049,0.00,VWS V14.01,2013-03-03 11:02:00,
2013-03-03 06:07:00,29.9,23.0,30.04,East,93,1.0,2.0,75,0.00,,OVC049,0.00,VWS V14.01,2013-03-03 11:07:00,
2013-03-03 06:12:00,29.9,22.6,30.04,NW,304,1.0,13.0,74,0.00,,OVC049,0.00,VWS V14.01,2013-03-03 11:12:00,
2013-03-03 06:17:00,29.9,22.6,30.04,NNW,330,3.0,7.0,74,0.00,,OVC049,0.00,VWS V14.01,2013-03-03 11:17:00,
2013-03-03 06:22:00,30.0,22.7,30.05,NE,39,1.0,1.0,74,0.00,,OVC049,0.00,VWS V14.01,2013-03-03 11:22:00,
2013-03-03 06:27:00,30.0,22.7,30.05,WSW,239,0.0,3.0,74,0.00,,OVC049,0.00,VWS V14.01,2013-03-03 11:27:00,
2013-03-03 06:32:00,29.9,22.6,30.05,WNW,287,0.0,1.0,74,0.00,,OVC049,0.00,VWS V14.01,2013-03-03 11:32:00,
2013-03-03 06:37:00,29.8,22.5,30.05,North,9,0.0,2.0,74,0.00,,OVC049,0.00,VWS V14.01,2013-03-03 11:37:00,
2013-03-03 06:42:00,29.7,22.1,30.05,NNW,339,2.0,3.0,73,0.00,,OVC049,0.00,VWS V14.01,2013-03-03 11:42:00,
2013-03-03 06:47:00,29.6,22.0,30.05,North,353,1.0,3.0,73,0.00,,OVC049,0.00,VWS V14.01,2013-03-03 11:47:00,
2013-03-03 06:52:00,29.6,22.0,30.05,NW,316,1.0,1.0,73,0.00,,OVC049,0.00,VWS V14.01,2013-03-03 11:52:00,
2013-03-03 06:57:00,29.6,22.0,30.05,West,267,1.0,6.0,73,0.00,,OVC049,0.00,VWS V14.01,2013-03-03 11:57:00,
2013-03-03 07:02:00,29.6,21.4,30.05,NNW,327,2.0,4.0,71,0.00,,BKN040,0.00,VWS V14.01,2013-03-03 12:02:00,
2013-03-03 07:07:00,29.7,21.1,30.05,North,3,5.0,7.0,70,0.00,,BKN040,0.00,VWS V14.01,2013-03-03 12:07:00,
2013-03-03 07:12:00,29.8,20.9,30.06,NW,316,1.0,2.0,69,0.00,,BKN040,0.00,VWS V14.01,2013-03-03 12:12:00,
2013-03-03 07:17:00,29.9,21.0,30.06,NNW,343,1.0,1.0,69,0.00,,BKN040,0.00,VWS V14.01,2013-03-03 12:17:00,
2013-03-03 07:22:00,29.9,20.3,30.06,South,170,1.0,2.0,67,0.00,,BKN040,0.00,VWS V14.01,2013-03-03 12:22:00,
2013-03-03 07:27:00,30.0,20.4,30.06,North,1,4.0,5.0,67,0.00,,BKN040,0.00,VWS V14.01,2013-03-03 12:27:00,
2013-03-03 07:32:00,30.0,20.4,30.06,NW,319,3.0,7.0,67,0.00,,BKN040,0.00,VWS V14.01,2013-03-03 12:32:00,
2013-03-03 07:37:00,30.1,20.5,30.06,NW,316,2.0,2.0,67,0.00,,BKN040,0.00,VWS V14.01,2013-03-03 12:37:00,
2013-03-03 07:42:00,30.1,20.5,30.06,NW,314,2.0,2.0,67,0.00,,BKN040,0.00,VWS V14.01,2013-03-03 12:42:00,
2013-03-03 07:47:00,30.1,20.5,30.06,NNE,22,2.0,4.0,67,0.00,,BKN040,0.00,VWS V14.01,2013-03-03 12:47:00,
2013-03-03 07:52:00,30.2,20.6,30.06,NW,316,3.0,8.0,67,0.00,,BKN040,0.00,VWS V14.01,2013-03-03 12:52:00,
2013-03-03 07:57:00,30.2,20.6,30.07,North,8,4.0,4.0,67,0.00,,BKN040,0.00,VWS V14.01,2013-03-03 12:57:00,
2013-03-03 08:02:00,30.2,20.2,30.07,NW,321,2.0,7.0,66,0.00,,OVC040,0.00,VWS V14.01,2013-03-03 13:02:00,
2013-03-03 08:07:00,30.2,20.6,30.07,NNE,15,6.0,6.0,67,0.00,,OVC040,0.00,VWS V14.01,2013-03-03 13:07:00,
2013-03-03 08:12:00,30.2,20.2,30.07,North,349,5.0,9.0,66,0.00,,OVC040,0.00,VWS V14.01,2013-03-03 13:12:00,
2013-03-03 08:17:00,30.3,20.7,30.07,WSW,238,3.0,6.0,67,0.00,,OVC040,0.00,VWS V14.01,2013-03-03 13:17:00,
2013-03-03 08:22:00,30.3,20.7,30.07,West,269,0.0,7.0,67,0.00,,OVC040,0.00,VWS V14.01,2013-03-03 13:22:00,
2013-03-03 08:27:00,30.3,20.7,30.08,NW,318,3.0,4.0,67,0.00,,OVC040,0.00,VWS V14.01,2013-03-03 13:27:00,
2013-03-03 08:32:00,30.4,20.8,30.08,NNE,29,3.0,4.0,67,0.00,,OVC040,0.00,VWS V14.01,2013-03-03 13:32:00,
2013-03-03 08:37:00,30.4,20.8,30.08,North,360,6.0,6.0,67,0.00,,OVC040,0.00,VWS V14.01,2013-03-03 13:37:00,
2013-03-03 08:42:00,30.5,20.9,30.08,NNE,16,2.0,4.0,67,0.00,,OVC040,0.00,VWS V14.01,2013-03-03 13:42:00,
2013-03-03 08:47:00,30.6,21.0,30.08,ENE,60,5.0,7.0,67,0.00,,OVC040,0.00,VWS V14.01,2013-03-03 13:47:00,
2013-03-03 08:52:00,30.8,20.8,30.08,NW,312,2.0,3.0,66,0.00,,OVC040,0.00,VWS V14.01,2013-03-03 13:52:00,
2013-03-03 08:57:00,30.7,20.7,30.08,NNW,343,6.0,9.0,66,0.00,,OVC040,0.00,VWS V14.01,2013-03-03 13:57:00,
2013-03-03 09:02:00,30.8,20.8,30.08,NNE,13,1.0,3.0,66,0.00,,,0.00,VWS V14.01,2013-03-03 14:02:00,
2013-03-03 09:07:00,31.0,21.0,30.08,NW,316,2.0,2.0,66,0.00,,,0.00,VWS V14.01,2013-03-03 14:07:00,
2013-03-03 09:12:00,31.0,21.3,30.08,NE,53,1.0,3.0,67,0.00,,,0.00,VWS V14.01,2013-03-03 14:12:00,
2013-03-03 09:17:00,31.0,21.0,30.08,North,5,3.0,7.0,66,0.00,,,0.00,VWS V14.01,2013-03-03 14:17:00,
2013-03-03 09:22:00,31.2,21.5,30.08,NNE,23,2.0,2.0,67,0.00,,,0.00,VWS V14.01,2013-03-03 14:22:00,
2013-03-03 09:27:00,31.1,21.1,30.08,North,354,4.0,7.0,66,0.00,,,0.00,VWS V14.01,2013-03-03 14:27:00,
2013-03-03 09:32:00,31.1,21.1,30.08,WNW,302,4.0,6.0,66,0.00,,,0.00,VWS V14.01,2013-03-03 14:32:00,
2013-03-03 09:37:00,31.2,21.5,30.08,West,259,4.0,9.0,67,0.00,,,0.00,VWS V14.01,2013-03-03 14:37:00,
2013-03-03 09:42:00,31.3,21.6,30.08,NNW,328,2.0,8.0,67,0.00,,,0.00,VWS V14.01,2013-03-03 14:42:00,
2013-03-03 09:47:00,31.4,21.0,30.08,NNE,16,4.0,5.0,65,0.00,,,0.00,VWS V14.01,2013-03-03 14:47:00,
2013-03-03 09:52:00,31.5,20.4,30.08,NW,317,3.0,9.0,63,0.00,,,0.00,VWS V14.01,2013-03-03 14:52:00,
2013-03-03 09:57:00,31.5,20.0,30.09,North,5,3.0,6.0,62,0.00,,,0.00,VWS V14.01,2013-03-03 14:57:00,
2013-03-03 10:02:00,31.3,19.4,30.08,NNE,27,4.0,4.0,61,0.00,,,0.00,VWS V14.01,2013-03-03 15:02:00,
2013-03-03 10:07:00,31.3,19.4,30.08,NW,311,1.0,4.0,61,0.00,,,0.00,VWS V14.01,2013-03-03 15:07:00,
2013-03-03 10:12:00,31.6,19.3,30.09,West,281,2.0,9.0,60,0.00,,,0.00,VWS V14.01,2013-03-03 15:12:00,
2013-03-03 10:17:00,31.8,19.9,30.09,East,95,2.0,4.0,61,0.00,,,0.00,VWS V14.01,2013-03-03 15:17:00,
2013-03-03 10:22:00,31.9,19.2,30.08,NE,39,4.0,7.0,59,0.00,,,0.00,VWS V14.01,2013-03-03 15:22:00,
2013-03-03 10:27:00,32.1,19.4,30.08,NNW,332,2.0,4.0,59,0.00,,,0.00,VWS V14.01,2013-03-03 15:27:00,
2013-03-03 10:32:00,32.3,19.2,30.08,NNW,333,5.0,6.0,58,0.00,,,0.00,VWS V14.01,2013-03-03 15:32:00,
2013-03-03 10:37:00,33.3,19.7,30.08,NNE,29,3.0,3.0,57,0.00,,,0.00,VWS V14.01,2013-03-03 15:37:00,
2013-03-03 10:42:00,34.0,20.0,30.08,West,259,1.0,2.0,56,0.00,,,0.00,VWS V14.01,2013-03-03 15:42:00,
2013-03-03 10:47:00,34.7,19.3,30.08,North,359,6.0,6.0,53,0.00,,,0.00,VWS V14.01,2013-03-03 15:47:00,
2013-03-03 10:52:00,34.4,17.7,30.08,NNW,346,4.0,7.0,50,0.00,,,0.00,VWS V14.01,2013-03-03 15:52:00,
2013-03-03 10:57:00,34.5,17.8,30.08,ENE,57,2.0,4.0,50,0.00,,,0.00,VWS V14.01,2013-03-03 15:57:00,
2013-03-03 11:02:00,34.9,18.2,30.08,WNW,297,1.0,4.0,50,0.00,,,0.00,VWS V14.01,2013-03-03 16:02:00,
2013-03-03 11:07:00,35.3,18.5,30.08,WNW,289,2.0,3.0,50,0.00,,,0.00,VWS V14.01,2013-03-03 16:07:00,
2013-03-03 11:12:00,35.6,19.3,30.08,West,259,7.0,7.0,51,0.00,,,0.00,VWS V14.01,2013-03-03 16:12:00,
2013-03-03 11:17:00,36.3,20.4,30.08,West,276,1.0,5.0,52,0.00,,,0.00,VWS V14.01,2013-03-03 16:17:00,
2013-03-03 11:22:00,36.4,19.5,30.09,NNE,27,2.0,4.0,50,0.00,,OVC036,0.00,VWS V14.01,2013-03-03 16:22:00,
2013-03-03 11:27:00,36.4,19.5,30.09,NW,326,3.0,4.0,50,0.00,,OVC036,0.00,VWS V14.01,2013-03-03 16:27:00,
2013-03-03 11:32:00,36.5,20.6,30.08,West,266,8.0,11.0,52,0.00,,OVC036,0.00,VWS V14.01,2013-03-03 16:32:00,
2013-03-03 11:37:00,36.8,19.9,30.09,NNW,341,3.0,5.0,50,0.00,,OVC036,0.00,VWS V14.01,2013-03-03 16:37:00,
2013-03-03 11:42:00,37.1,18.8,30.09,SW,218,7.0,7.0,47,0.00,,OVC036,0.00,VWS V14.01,2013-03-03 16:42:00,
2013-03-03 11:47:00,37.0,19.1,30.08,West,259,4.0,6.0,48,0.00,,OVC036,0.00,VWS V14.01,2013-03-03 16:47:00,
2013-03-03 11:52:00,36.7,19.4,30.08,North,354,1.0,1.0,49,0.00,,OVC036,0.00,VWS V14.01,2013-03-03 16:52:00,
2013-03-03 11:57:00,37.2,20.3,30.08,NW,314,1.0,4.0,50,0.00,,OVC036,0.00,VWS V14.01,2013-03-03 16:57:00,
2013-03-03 12:02:00,37.5,19.1,30.08,NW,326,3.0,6.0,47,0.00,,BKN042,0.00,VWS V14.01,2013-03-03 17:02:00,
2013-03-03 12:07:00,37.2,19.3,30.08,NW,307,2.0,6.0,48,0.00,,BKN042,0.00,VWS V14.01,2013-03-03 17:07:00,
2013-03-03 12:13:00,37.9,20.0,30.08,NNW,330,2.0,2.0,48,0.00,,BKN042,0.00,VWS V14.01,2013-03-03 17:13:00,
2013-03-03 12:17:00,38.5,20.0,30.08,South,188,0.0,2.0,47,0.00,,BKN042,0.00,VWS V14.01,2013-03-03 17:17:00,
2013-03-03 12:23:00,38.6,19.1,30.08,West,263,3.0,4.0,45,0.00,,BKN042,0.00,VWS V14.01,2013-03-03 17:23:00,
2013-03-03 12:28:00,39.0,19.0,30.08,North,1,4.0,4.0,44,0.00,,BKN042,0.00,VWS V14.01,2013-03-03 17:28:00,
2013-03-03 12:33:00,39.0,19.5,30.07,NW,323,3.0,3.0,45,0.00,,BKN042,0.00,VWS V14.01,2013-03-03 17:33:00,
2013-03-03 12:37:00,39.2,19.7,30.07,WNW,283,3.0,9.0,45,0.00,,BKN042,0.00,VWS V14.01,2013-03-03 17:37:00,
2013-03-03 12:42:00,38.9,19.9,30.07,NNW,333,7.0,9.0,46,0.00,,BKN042,0.00,VWS V14.01,2013-03-03 17:42:00,
2013-03-03 12:47:00,39.1,21.1,30.07,NW,304,3.0,6.0,48,0.00,,BKN042,0.00,VWS V14.01,2013-03-03 17:47:00,
2013-03-03 12:53:00,38.8,20.3,30.07,NNW,344,3.0,5.0,47,0.00,,BKN042,0.00,VWS V14.01,2013-03-03 17:53:00,
2013-03-03 12:58:00,39.2,21.2,30.07,West,274,2.0,3.0,48,0.00,,BKN042,0.00,VWS V14.01,2013-03-03 17:58:00,
2013-03-03 13:02:00,38.8,19.8,30.07,WNW,285,2.0,7.0,46,0.00,,BKN042,0.00,VWS V14.01,2013-03-03 18:02:00,
2013-03-03 13:07:00,38.2,20.2,30.07,NNW,333,1.0,7.0,48,0.00,,BKN042,0.00,VWS V14.01,2013-03-03 18:07:00,
2013-03-03 13:13:00,38.6,20.1,30.08,West,271,1.0,4.0,47,0.00,,BKN042,0.00,VWS V14.01,2013-03-03 18:13:00,
2013-03-03 13:18:00,38.7,20.2,30.08,NNW,344,8.0,9.0,47,0.00,,BKN042,0.00,VWS V14.01,2013-03-03 18:18:00,
2013-03-03 13:23:00,38.4,20.4,30.07,SW,231,6.0,6.0,48,0.00,,BKN042,0.00,VWS V14.01,2013-03-03 18:23:00,
2013-03-03 13:28:00,38.6,20.6,30.07,ESE,118,0.0,5.0,48,0.00,,BKN042,0.00,VWS V14.01,2013-03-03 18:28:00,
2013-03-03 13:33:00,39.1,20.1,30.07,SSE,161,1.0,9.0,46,0.00,,BKN042,0.00,VWS V14.01,2013-03-03 18:33:00,
2013-03-03 13:37:00,39.1,20.1,30.06,WSW,250,5.0,5.0,46,0.00,,BKN042,0.00,VWS V14.01,2013-03-03 18:37:00,
2013-03-03 13:42:00,39.5,19.9,30.06,North,352,8.0,8.0,45,0.00,,BKN042,0.00,VWS V14.01,2013-03-03 18:42:00,
2013-03-03 13:47:00,39.3,19.8,30.06,NNE,13,5.0,9.0,45,0.00,,BKN042,0.00,VWS V14.01,2013-03-03 18:47:00,
2013-03-03 13:52:00,39.3,19.8,30.06,NNW,332,5.0,7.0,45,0.00,,BKN042,0.00,VWS V14.01,2013-03-03 18:52:00,
2013-03-03 13:58:00,39.4,20.4,30.06,NNW,337,5.0,10.0,46,0.00,,BKN042,0.00,VWS V14.01,2013-03-03 18:58:00,
2013-03-03 14:03:00,39.3,20.3,30.06,WNW,296,3.0,6.0,46,0.00,,SCT044,0.00,VWS V14.01,2013-03-03 19:03:00,
2013-03-03 14:08:00,39.6,20.5,30.06,NNW,327,4.0,4.0,46,0.00,,SCT044,0.00,VWS V14.01,2013-03-03 19:08:00,
2013-03-03 14:13:00,39.6,20.5,30.06,West,260,1.0,8.0,46,0.00,,SCT044,0.00,VWS V14.01,2013-03-03 19:13:00,
2013-03-03 14:18:00,39.5,19.9,30.06,NNW,333,4.0,5.0,45,0.00,,SCT044,0.00,VWS V14.01,2013-03-03 19:18:00,
2013-03-03 14:23:00,39.6,20.5,30.06,NNW,330,5.0,7.0,46,0.00,,SCT044,0.00,VWS V14.01,2013-03-03 19:23:00,
2013-03-03 14:28:00,39.5,19.9,30.06,WNW,297,3.0,8.0,45,0.00,,SCT044,0.00,VWS V14.01,2013-03-03 19:28:00,
2013-03-03 14:33:00,38.8,19.3,30.06,WNW,293,0.0,9.0,45,0.00,,SCT044,0.00,VWS V14.01,2013-03-03 19:33:00,
2013-03-03 14:38:00,38.5,20.0,30.06,WNW,295,2.0,9.0,47,0.00,,SCT044,0.00,VWS V14.01,2013-03-03 19:38:00,
2013-03-03 14:43:00,38.8,20.3,30.06,NNE,31,8.0,9.0,47,0.00,,SCT044,0.00,VWS V14.01,2013-03-03 19:43:00,
2013-03-03 14:48:00,38.9,19.9,30.06,NNE,29,5.0,9.0,46,0.00,,SCT044,0.00,VWS V14.01,2013-03-03 19:48:00,
2013-03-03 14:53:00,38.9,19.9,30.06,NW,318,3.0,5.0,46,0.00,,SCT044,0.00,VWS V14.01,2013-03-03 19:53:00,
2013-03-03 14:58:00,38.9,20.4,30.06,NE,53,8.0,8.0,47,0.00,,SCT044,0.00,VWS V14.01,2013-03-03 19:58:00,
2013-03-03 15:03:00,38.7,20.2,30.06,WSW,250,4.0,10.0,47,0.00,,BKN046,0.00,VWS V14.01,2013-03-03 20:03:00,
2013-03-03 15:08:00,39.3,20.8,30.06,SW,231,5.0,8.0,47,0.00,,BKN046,0.00,VWS V14.01,2013-03-03 20:08:00,
2013-03-03 15:13:00,39.1,20.1,30.06,North,349,4.0,7.0,46,0.00,,BKN046,0.00,VWS V14.01,2013-03-03 20:13:00,
2013-03-03 15:18:00,39.3,20.3,30.06,North,352,5.0,8.0,46,0.00,,BKN046,0.00,VWS V14.01,2013-03-03 20:18:00,
2013-03-03 15:23:00,39.0,20.0,30.06,WSW,245,3.0,6.0,46,0.00,,BKN046,0.00,VWS V14.01,2013-03-03 20:23:00,
2013-03-03 15:28:00,39.2,20.2,30.06,NW,316,3.0,4.0,46,0.00,,BKN046,0.00,VWS V14.01,2013-03-03 20:28:00,
2013-03-03 15:33:00,40.0,20.9,30.06,NW,311,1.0,5.0,46,0.00,,BKN046,0.00,VWS V14.01,2013-03-03 20:33:00,
2013-03-03 15:38:00,40.8,21.6,30.06,North,349,6.0,12.0,46,0.00,,BKN046,0.00,VWS V14.01,2013-03-03 20:38:00,
2013-03-03 15:43:00,39.7,20.6,30.06,NNW,347,2.0,6.0,46,0.00,,BKN046,0.00,VWS V14.01,2013-03-03 20:43:00,
2013-03-03 15:48:00,39.9,21.3,30.07,SW,219,2.0,6.0,47,0.00,,BKN046,0.00,VWS V14.01,2013-03-03 20:48:00,
2013-03-03 15:53:00,39.5,20.5,30.07,West,269,1.0,9.0,46,0.00,,BKN046,0.00,VWS V14.01,2013-03-03 20:53:00,
2013-03-03 15:58:00,39.4,20.4,30.06,North,11,4.0,7.0,46,0.00,,BKN046,0.00,VWS V14.01,2013-03-03 20:58:00,
2013-03-03 16:03:00,38.9,20.9,30.06,North,352,6.0,7.0,48,0.00,,SCT050,0.00,VWS V14.01,2013-03-03 21:03:00,
2013-03-03 16:08:00,39.0,21.0,30.07,NE,44,1.0,9.0,48,0.00,,SCT050,0.00,VWS V14.01,2013-03-03 21:08:00,
2013-03-03 16:13:00,39.4,21.4,30.07,WNW,284,1.0,6.0,48,0.00,,SCT050,0.00,VWS V14.01,2013-03-03 21:13:00,
2013-03-03 16:18:00,39.1,20.6,30.07,West,267,3.0,10.0,47,0.00,,SCT050,0.00,VWS V14.01,2013-03-03 21:18:00,
2013-03-03 16:23:00,38.8,21.3,30.07,NNE,12,0.0,4.0,49,0.00,,SCT050,0.00,VWS V14.01,2013-03-03 21:23:00,
2013-03-03 16:28:00,38.8,20.8,30.07,North,4,4.0,9.0,48,0.00,,SCT050,0.00,VWS V14.01,2013-03-03 21:28:00,
2013-03-03 16:33:00,38.7,20.7,30.07,NW,319,6.0,7.0,48,0.00,,SCT050,0.00,VWS V14.01,2013-03-03 21:33:00,
2013-03-03 16:38:00,38.7,20.7,30.07,NE,46,3.0,5.0,48,0.00,,SCT050,0.00,VWS V14.01,2013-03-03 21:38:00,
2013-03-03 16:43:00,38.7,21.2,30.07,NE,34,1.0,5.0,49,0.00,,SCT050,0.00,VWS V14.01,2013-03-03 21:43:00,
2013-03-03 16:48:00,38.5,21.0,30.07,SW,217,1.0,7.0,49,0.00,,SCT050,0.00,VWS V14.01,2013-03-03 21:48:00,
2013-03-03 16:53:00,39.0,21.0,30.07,NNE,31,5.0,6.0,48,0.00,,SCT050,0.00,VWS V14.01,2013-03-03 21:53:00,
2013-03-03 16:58:00,39.1,21.1,30.07,NNW,334,4.0,8.0,48,0.00,,SCT050,0.00,VWS V14.01,2013-03-03 21:58:00,
2013-03-03 17:03:00,38.5,20.0,30.07,NNW,340,2.0,5.0,47,0.00,,SKC,0.00,VWS V14.01,2013-03-03 22:03:00,
2013-03-03 17:08:00,38.6,20.6,30.07,NNW,336,2.0,5.0,48,0.00,,SKC,0.00,VWS V14.01,2013-03-03 22:08:00,
2013-03-03 17:13:00,38.1,20.6,30.07,NW,324,5.0,7.0,49,0.00,,SKC,0.00,VWS V14.01,2013-03-03 22:13:00,
2013-03-03 17:18:00,37.9,20.5,30.07,NNW,341,4.0,8.0,49,0.00,,SKC,0.00,VWS V14.01,2013-03-03 22:18:00,
2013-03-03 17:23:00,38.0,21.0,30.07,NW,323,2.0,7.0,50,0.00,,SKC,0.00,VWS V14.01,2013-03-03 22:23:00,
2013-03-03 17:28:00,37.7,20.3,30.08,NW,315,4.0,7.0,49,0.00,,SKC,0.00,VWS V14.01,2013-03-03 22:28:00,
2013-03-03 17:33:00,37.5,20.1,30.08,NW,313,1.0,7.0,49,0.00,,SKC,0.00,VWS V14.01,2013-03-03 22:33:00,
2013-03-03 17:38:00,37.6,20.2,30.08,NNW,347,3.0,6.0,49,0.00,,SKC,0.00,VWS V14.01,2013-03-03 22:38:00,
2013-03-03 17:43:00,37.2,19.8,30.08,NNW,332,2.0,5.0,49,0.00,,SKC,0.00,VWS V14.01,2013-03-03 22:43:00,
2013-03-03 17:48:00,37.2,20.3,30.08,NE,34,0.0,1.0,50,0.00,,SKC,0.00,VWS V14.01,2013-03-03 22:48:00,
2013-03-03 17:53:00,37.3,20.4,30.08,NNE,19,3.0,3.0,50,0.00,,SKC,0.00,VWS V14.01,2013-03-03 22:53:00,
2013-03-03 17:58:00,37.3,20.4,30.08,NNE,29,2.0,2.0,50,0.00,,SKC,0.00,VWS V14.01,2013-03-03 22:58:00,
2013-03-03 18:03:00,37.0,19.6,30.09,North,349,4.0,8.0,49,0.00,,SKC,0.00,VWS V14.01,2013-03-03 23:03:00,
2013-03-03 18:08:00,36.7,19.8,30.09,NE,47,1.0,1.0,50,0.00,,SKC,0.00,VWS V14.01,2013-03-03 23:08:00,
2013-03-03 18:13:00,36.5,19.6,30.09,NNW,332,1.0,5.0,50,0.00,,SKC,0.00,VWS V14.01,2013-03-03 23:13:00,
2013-03-03 18:18:00,36.4,20.0,30.09,NNW,333,0.0,2.0,51,0.00,,SKC,0.00,VWS V14.01,2013-03-03 23:18:00,
2013-03-03 18:23:00,36.3,19.9,30.09,NNW,338,5.0,5.0,51,0.00,,SKC,0.00,VWS V14.01,2013-03-03 23:23:00,
2013-03-03 18:28:00,36.0,19.6,30.09,NNW,334,3.0,3.0,51,0.00,,SKC,0.00,VWS V14.01,2013-03-03 23:28:00,
2013-03-03 18:33:00,35.7,19.8,30.09,North,355,2.0,3.0,52,0.00,,SKC,0.00,VWS V14.01,2013-03-03 23:33:00,
2013-03-03 18:38:00,35.5,20.1,30.09,NW,321,0.0,1.0,53,0.00,,SKC,0.00,VWS V14.01,2013-03-03 23:38:00,
2013-03-03 18:42:00,35.3,19.9,30.09,NNW,344,1.0,2.0,53,0.00,,SKC,0.00,VWS V14.01,2013-03-03 23:42:00,
2013-03-03 18:47:00,35.1,19.7,30.09,NNW,328,2.0,7.0,53,0.00,,SKC,0.00,VWS V14.01,2013-03-03 23:47:00,
2013-03-03 18:53:00,35.0,20.0,30.09,NNW,327,1.0,3.0,54,0.00,,SKC,0.00,VWS V14.01,2013-03-03 23:53:00,
2013-03-03 18:57:00,34.9,20.0,30.09,NNE,22,2.0,4.0,54,0.00,,SKC,0.00,VWS V14.01,2013-03-03 23:57:00,
2013-03-03 19:03:00,34.9,20.0,30.09,NNW,328,1.0,3.0,54,0.00,,SKC,0.00,VWS V14.01,2013-03-04 00:03:00,
2013-03-03 19:08:00,34.7,19.8,30.10,NNW,333,0.0,3.0,54,0.00,,SKC,0.00,VWS V14.01,2013-03-04 00:08:00,
2013-03-03 19:13:00,34.6,20.1,30.10,NNE,13,2.0,2.0,55,0.00,,SKC,0.00,VWS V14.01,2013-03-04 00:13:00,
2013-03-03 19:18:00,34.5,19.6,30.10,NW,312,2.0,2.0,54,0.00,,SKC,0.00,VWS V14.01,2013-03-04 00:18:00,
2013-03-03 19:23:00,34.3,19.8,30.10,North,356,0.0,0.0,55,0.00,,SKC,0.00,VWS V14.01,2013-03-04 00:23:00,
2013-03-03 19:28:00,34.0,20.0,30.10,NW,311,0.0,0.0,56,0.00,,SKC,0.00,VWS V14.01,2013-03-04 00:28:00,
2013-03-03 19:33:00,33.7,19.7,30.10,North,3,1.0,1.0,56,0.00,,SKC,0.00,VWS V14.01,2013-03-04 00:33:00,
2013-03-03 19:38:00,33.5,19.9,30.10,West,273,0.0,0.0,57,0.00,,SKC,0.00,VWS V14.01,2013-03-04 00:38:00,
2013-03-03 19:43:00,33.3,19.7,30.10,West,273,0.0,0.0,57,0.00,,SKC,0.00,VWS V14.01,2013-03-04 00:43:00,
2013-03-03 19:48:00,33.0,19.9,30.10,West,273,0.0,0.0,58,0.00,,SKC,0.00,VWS V14.01,2013-03-04 00:48:00,
2013-03-03 19:53:00,32.8,19.7,30.10,West,273,0.0,0.0,58,0.00,,SKC,0.00,VWS V14.01,2013-03-04 00:53:00,
2013-03-03 19:58:00,32.7,20.0,30.10,North,349,1.0,1.0,59,0.00,,SKC,0.00,VWS V14.01,2013-03-04 00:58:00,
2013-03-03 20:03:00,32.6,19.9,30.10,NW,321,0.0,0.0,59,0.00,,SKC,0.00,VWS V14.01,2013-03-04 01:03:00,
2013-03-03 20:08:00,32.3,20.0,30.10,NW,320,0.0,0.0,60,0.00,,SKC,0.00,VWS V14.01,2013-03-04 01:08:00,
2013-03-03 20:13:00,32.1,19.8,30.10,WNW,296,0.0,0.0,60,0.00,,SKC,0.00,VWS V14.01,2013-03-04 01:13:00,
2013-03-03 20:18:00,32.0,19.7,30.10,WNW,302,0.0,0.0,60,0.00,,SKC,0.00,VWS V14.01,2013-03-04 01:18:00,
2013-03-03 20:23:00,31.9,20.0,30.10,WNW,302,0.0,0.0,61,0.00,,SKC,0.00,VWS V14.01,2013-03-04 01:23:00,
2013-03-03 20:28:00,31.7,19.8,30.10,NW,311,0.0,0.0,61,0.00,,SKC,0.00,VWS V14.01,2013-03-04 01:28:00,
2013-03-03 20:32:00,31.6,19.7,30.11,NNW,347,0.0,1.0,61,0.00,,SKC,0.00,VWS V14.01,2013-03-04 01:32:00,
2013-03-03 20:38:00,31.6,20.1,30.11,NNW,347,0.0,0.0,62,0.00,,SKC,0.00,VWS V14.01,2013-03-04 01:38:00,
2013-03-03 20:43:00,31.5,20.0,30.11,NNW,328,0.0,0.0,62,0.00,,SKC,0.00,VWS V14.01,2013-03-04 01:43:00,
2013-03-03 20:48:00,31.4,20.3,30.11,NNE,20,0.0,0.0,63,0.00,,SKC,0.00,VWS V14.01,2013-03-04 01:48:00,
2013-03-03 20:53:00,31.2,19.7,30.11,NNE,19,0.0,0.0,62,0.00,,SKC,0.00,VWS V14.01,2013-03-04 01:53:00,
2013-03-03 20:58:00,31.0,19.9,30.11,NNE,18,0.0,0.0,63,0.00,,SKC,0.00,VWS V14.01,2013-03-04 01:58:00,
2013-03-03 21:03:00,30.8,19.7,30.12,West,277,0.0,0.0,63,0.00,,SKC,0.00,VWS V14.01,2013-03-04 02:03:00,
2013-03-03 21:08:00,30.8,19.7,30.12,West,277,0.0,0.0,63,0.00,,SKC,0.00,VWS V14.01,2013-03-04 02:08:00,
2013-03-03 21:13:00,30.6,19.9,30.12,West,277,0.0,0.0,64,0.00,,SKC,0.00,VWS V14.01,2013-03-04 02:13:00,
2013-03-03 21:18:00,30.3,19.6,30.12,West,277,0.0,0.0,64,0.00,,SKC,0.00,VWS V14.01,2013-03-04 02:18:00,
2013-03-03 21:23:00,30.2,19.5,30.12,West,276,0.0,0.0,64,0.00,,SKC,0.00,VWS V14.01,2013-03-04 02:23:00,
2013-03-03 21:28:00,30.0,19.7,30.12,West,277,0.0,0.0,65,0.00,,SKC,0.00,VWS V14.01,2013-03-04 02:28:00,
2013-03-03 21:33:00,29.9,19.6,30.12,West,276,0.0,0.0,65,0.00,,SKC,0.00,VWS V14.01,2013-03-04 02:33:00,
2013-03-03 21:38:00,29.7,19.8,30.12,West,275,0.0,0.0,66,0.00,,SKC,0.00,VWS V14.01,2013-03-04 02:38:00,
2013-03-03 21:43:00,29.6,19.6,30.12,West,277,0.0,0.0,66,0.00,,SKC,0.00,VWS V14.01,2013-03-04 02:43:00,
2013-03-03 21:48:00,29.5,19.6,30.12,West,277,0.0,0.0,66,0.00,,SKC,0.00,VWS V14.01,2013-03-04 02:48:00,
2013-03-03 21:53:00,29.2,19.3,30.12,West,277,0.0,0.0,66,0.00,,SKC,0.00,VWS V14.01,2013-03-04 02:53:00,
2013-03-03 21:58:00,29.0,19.4,30.12,West,276,0.0,0.0,67,0.00,,SKC,0.00,VWS V14.01,2013-03-04 02:58:00,
2013-03-03 22:03:00,28.9,19.7,30.12,West,276,0.0,0.0,68,0.00,,SKC,0.00,VWS V14.01,2013-03-04 03:03:00,
2013-03-03 22:08:00,28.8,19.9,30.12,West,277,0.0,0.0,69,0.00,,SKC,0.00,VWS V14.01,2013-03-04 03:08:00,
2013-03-03 22:13:00,28.8,19.9,30.12,West,276,0.0,0.0,69,0.00,,SKC,0.00,VWS V14.01,2013-03-04 03:13:00,
2013-03-03 22:18:00,28.8,20.3,30.12,West,277,0.0,0.0,70,0.00,,SKC,0.00,VWS V14.01,2013-03-04 03:18:00,
2013-03-03 22:23:00,28.6,19.7,30.12,West,276,0.0,0.0,69,0.00,,SKC,0.00,VWS V14.01,2013-03-04 03:23:00,
2013-03-03 22:28:00,28.6,19.7,30.12,West,277,0.0,0.0,69,0.00,,SKC,0.00,VWS V14.01,2013-03-04 03:28:00,
2013-03-03 22:33:00,28.4,20.2,30.12,West,277,0.0,0.0,71,0.00,,SKC,0.00,VWS V14.01,2013-03-04 03:33:00,
2013-03-03 22:38:00,28.1,20.2,30.12,West,276,0.0,0.0,72,0.00,,SKC,0.00,VWS V14.01,2013-03-04 03:38:00,
2013-03-03 22:43:00,28.0,21.1,30.12,West,277,0.0,0.0,75,0.00,,SKC,0.00,VWS V14.01,2013-03-04 03:43:00,
2013-03-03 22:48:00,27.8,20.9,30.12,West,277,0.0,0.0,75,0.00,,SKC,0.00,VWS V14.01,2013-03-04 03:48:00,
2013-03-03 22:53:00,27.6,21.0,30.12,West,277,0.0,0.0,76,0.00,,SKC,0.00,VWS V14.01,2013-03-04 03:53:00,
2013-03-03 22:58:00,27.5,21.2,30.11,West,277,0.0,0.0,77,0.00,,SKC,0.00,VWS V14.01,2013-03-04 03:58:00,
2013-03-03 23:03:00,27.3,20.8,30.11,West,277,0.0,0.0,76,0.00,,SKC,0.00,VWS V14.01,2013-03-04 04:03:00,
2013-03-03 23:08:00,27.0,20.8,30.11,West,276,0.0,0.0,77,0.00,,SKC,0.00,VWS V14.01,2013-03-04 04:08:00,
2013-03-03 23:13:00,27.1,21.5,30.11,West,276,0.0,1.0,79,0.00,,SKC,0.00,VWS V14.01,2013-03-04 04:13:00,
2013-03-03 23:18:00,27.5,20.9,30.11,WSW,257,0.0,0.0,76,0.00,,SKC,0.00,VWS V14.01,2013-03-04 04:18:00,
2013-03-03 23:23:00,27.9,20.7,30.11,WSW,258,0.0,1.0,74,0.00,,SKC,0.00,VWS V14.01,2013-03-04 04:23:00,
2013-03-03 23:28:00,28.2,20.7,30.11,West,262,0.0,0.0,73,0.00,,SKC,0.00,VWS V14.01,2013-03-04 04:28:00,
2013-03-03 23:33:00,28.1,20.6,30.11,West,262,0.0,0.0,73,0.00,,SKC,0.00,VWS V14.01,2013-03-04 04:33:00,
2013-03-03 23:38:00,28.1,20.6,30.11,West,263,0.0,0.0,73,0.00,,SKC,0.00,VWS V14.01,2013-03-04 04:38:00,
2013-03-03 23:43:00,27.9,20.4,30.12,West,262,0.0,0.0,73,0.00,,SKC,0.00,VWS V14.01,2013-03-04 04:43:00,
2013-03-03 23:48:00,27.9,20.4,30.11,WNW,285,0.0,0.0,73,0.00,,SKC,0.00,VWS V14.01,2013-03-04 04:48:00,
2013-03-03 23:53:00,27.8,20.3,30.11,WNW,285,0.0,0.0,73,0.00,,SKC,0.00,VWS V14.01,2013-03-04 04:53:00,
2013-03-03 23:58:00,27.7,20.5,30.12,WNW,285,0.0,0.0,74,0.00,,SKC,0.00,VWS V14.01,2013-03-04 04:58:00,